Skip to main content

NOAA/GLERL Met Station at Muskegon, MI

Previous 5 days (top of hour only)
See also Previous 3 Hours (2 minute increments)
Jump down to Data
Switch to [English][Metric]
Zoom: Click and drag, Pan: shift-click and drag, Unzoom: double-click, Unzoom All






Note: Speed = mean wind during 2-minute period at top of hour,
Gust = max wind during 2-minute period at top of hour,
Peak = max wind during entire hour.
• See also 5-day windrose plot


NOAA/GLERL Met Station at Muskegon, MI

Previous 5 days (top of hour only)
See also Previous 3 Hours (2 minute increments)
Jump up to Graphs
Switch to [English][Metric]
                  Wind  Wind  Wind   Air   Dew   Rel     Sta   PAR
                   Spd   Gst   Dir  Temp    Pt   Hum    Pres uE/m2/
YYYY-MM-DD   EDT   kts   kts   deg     F     F     %   in Hg   sec
2018-08-20 05:00   6.2   8.7   129  68.9  62.9  80.8   29.35     2
2018-08-20 04:00   4.9   6.4   151  69.6  61.8  75.8   29.35     2
2018-08-20 03:00   2.7   3.3   115  69.1  59.8  71.8   29.35     2
2018-08-20 02:00   8.0   9.1   106  70.0  64.1  81.3   29.36     2
2018-08-20 01:00   6.4   7.8   108  70.5  63.9  79.3   29.36     2
2018-08-20 00:00   4.9   5.6   106  70.3  65.4  84.2   29.37     2
2018-08-19 23:00   1.0   1.2    58  70.5  59.4  67.5   29.37     2
2018-08-19 22:00   2.7   2.9    56  71.2  58.0  62.5   29.36     2
2018-08-19 21:00   2.9   3.3   103  73.8  59.7  61.0   29.34     3
2018-08-19 20:00   2.5   2.7    66  77.0  57.8  50.9   29.33   253
2018-08-19 19:00   3.7   4.3   358  78.1  60.0  53.2   29.33  1128
2018-08-19 18:00   6.0   6.6   347  76.8  64.0  64.0   29.35  1617
2018-08-19 17:00   6.8   7.8   338  77.0  66.0  68.3   29.37  1860
2018-08-19 16:00   7.8   8.6   321  76.3  66.2  70.5   29.38  1997
2018-08-19 15:00   7.2   8.2   292  75.2  66.9  74.9   29.38  2053
2018-08-19 14:00   2.7   3.7   233  73.9  68.6  83.1   29.38  2073
2018-08-19 13:00   4.7   5.4   258  73.4  68.1  83.1   29.38  2032
2018-08-19 12:00   2.3   3.5   249  70.9  70.1  97.2   29.38  2000
2018-08-19 11:00   3.1   3.5   223  70.3  70.2  99.4   29.38  2020
2018-08-19 10:00   3.1   4.3   100  68.7  68.7  99.9   29.38   940
2018-08-19 09:00   2.5   3.9    97  67.5  67.4  99.9   29.37   735
2018-08-19 08:00   6.0   6.8   112  66.4  66.4  99.9   29.36   206
2018-08-19 07:00   4.5   5.6   106  66.7  66.7  99.9   29.35    12
2018-08-19 06:00   5.2   6.0   119  67.3  67.3  99.9   29.35     2
2018-08-19 05:00   3.9   6.2   146  67.8  67.8  99.9   29.35     2
2018-08-19 04:00   1.6   1.9   114  66.6  66.5  99.9   29.35     2
2018-08-19 03:00   2.7   3.1    26  67.1  67.1  99.9   29.35     2
2018-08-19 02:00   3.9   4.1    19  67.3  67.3  99.9   29.35     2
2018-08-19 01:00   1.6   3.3    96  69.3  68.3  96.6   29.34     2
2018-08-19 00:00   8.0   8.9    92  68.9  67.8  96.2   29.35     2
2018-08-18 23:00   4.7   6.6    49  69.3  67.6  94.2   29.36     2
2018-08-18 22:00   1.9   3.1    47  69.8  67.4  91.9   29.35     2
2018-08-18 21:00   6.4   7.4     8  71.1  67.8  89.3   29.34     4
2018-08-18 20:00  14.4  16.9   357  73.0  68.1  84.3   29.34   337
2018-08-18 19:00  15.6  18.5   356  74.1  67.6  79.8   29.34  1076
2018-08-18 18:00  15.2  19.8   353  74.8  67.9  78.7   29.35  1496
2018-08-18 17:00  15.7  19.8   347  75.0  68.4  79.5   29.35  1765
2018-08-18 16:00  14.2  15.9   345  75.7  68.7  78.5   29.36  1938
2018-08-18 15:00  12.1  12.8   343  76.1  67.8  75.0   29.37  2012
2018-08-18 14:00   6.6   7.8   325  75.7  68.2  77.0   29.38  1943
2018-08-18 13:00   6.4   7.8    50  75.6  67.0  74.3   29.39  1901
2018-08-18 12:00   7.0   9.7    75  70.0  66.4  88.2   29.40  1814
2018-08-18 11:00   7.6   9.7    47  68.5  66.0  91.5   29.40   720
2018-08-18 10:00   8.4  12.2    58  67.3  66.6  97.6   29.39   589
2018-08-18 09:00   8.9  10.5    50  67.5  66.1  95.4   29.39   573
2018-08-18 08:00  10.7  13.0    41  66.4  66.0  98.5   29.39   197
2018-08-18 07:00  11.5  15.2    53  66.2  64.9  95.4   29.37    14
2018-08-18 06:00  14.0  17.3    45  66.9  64.7  92.5   29.36     2
2018-08-18 05:00   7.6  10.5    61  68.0  65.0  90.1   29.36     2
2018-08-18 04:00   8.2  10.7    63  67.8  66.5  95.6   29.35     2
2018-08-18 03:00   8.6  10.5    58  68.9  67.3  94.5   29.36     2
2018-08-18 02:00   0.4   1.9    42  69.3  68.3  96.8   29.36     2
2018-08-18 01:00   4.1   5.4    10  71.1  68.4  91.1   29.36     2
2018-08-18 00:00   3.7   3.9    42  69.8  69.8  99.9   29.36     2
2018-08-17 23:00   4.1   4.3   113  71.1  71.0  99.7   29.35     2
2018-08-17 22:00   3.7   4.3    88  70.9  70.0  97.1   29.35     2
2018-08-17 21:00   4.1   5.1    79  71.8  66.9  84.4   29.34     3
2018-08-17 20:00   7.2   8.6     9  76.8  71.8  84.1   29.33   291
2018-08-17 19:00   6.4   9.1   352  78.6  72.9  82.4   29.32  1104
2018-08-17 18:00   5.4   8.0     7  79.7  71.9  76.7   29.33  1126
2018-08-17 17:00   3.7   4.9    76  79.7  71.2  74.8   29.31  1490
2018-08-17 16:00   4.7   5.8    21  77.7  74.0  88.0   29.32  1348
2018-08-17 15:00   4.7   5.2    27  75.0  71.9  89.7   29.33   703
2018-08-17 14:00   6.8   8.6    10  75.2  73.9  95.5   29.33   501
2018-08-17 13:00   4.5   6.2   353  74.8  74.8  99.9   29.32   957
2018-08-17 12:00   0.8   1.0   230  73.9  73.9  99.9   29.32   613
2018-08-17 11:00   1.2   1.6    98  72.7  72.7  99.9   29.32   287
2018-08-17 10:00   4.5   5.1   102  72.7  72.7  99.9   29.32   104
2018-08-17 09:00   1.6   2.1   157  72.3  71.6  97.5   29.32    71
2018-08-17 08:00   5.2   6.0   115  72.3  71.6  97.4   29.31    47
2018-08-17 07:00   5.4   5.8   116  72.3  71.7  97.8   29.30     8
2018-08-17 06:00   6.8   8.0   101  72.5  72.5  99.9   29.29     2
2018-08-17 05:00   5.1   5.4   107  71.6  71.6  99.9   29.29     2
2018-08-17 04:00   2.3   2.3    81  71.8  71.8  99.9   29.28     2
2018-08-17 03:00   2.1   2.5    44  72.1  72.1  99.9   29.28     2
2018-08-17 02:00   0.4   1.4    85  72.9  72.8  99.8   29.30     2
2018-08-17 01:00   3.5   5.2    27  73.0  72.8  99.3   29.31     2
2018-08-17 00:00   5.8   6.4    15  73.4  72.8  98.1   29.31     2
2018-08-16 23:00   0.4   1.9   289  73.9  73.0  96.7   29.31     2
2018-08-16 22:00   6.2   8.7    16  74.3  73.4  97.1   29.31     2
2018-08-16 21:00   7.8  10.1     7  75.2  73.7  95.1   29.31     4
2018-08-16 20:00  11.9  14.6   352  77.0  74.6  92.2   29.29   299
2018-08-16 19:00  12.1  13.4   348  77.7  73.7  87.3   29.29  1097
2018-08-16 18:00  13.2  14.4   335  78.1  74.1  87.4   29.30  1553
2018-08-16 17:00   9.7  10.7   348  77.5  73.1  86.1   29.30   924
2018-08-16 16:00   9.9  10.9   321  77.2  72.8  86.2   29.31  1913
2018-08-16 15:00   8.2   8.9   312  77.0  72.7  86.4   29.32  2109
2018-08-16 14:00   8.0   8.6   303  75.9  72.6  89.2   29.33  2170
2018-08-16 13:00   6.2   6.6   288  75.4  71.4  87.3   29.34  2133
2018-08-16 12:00   6.0   6.6   258  74.5  71.9  91.4   29.35  1977
2018-08-16 11:00   3.1   3.5   225  74.5  71.3  89.7   29.34  1556
2018-08-16 10:00   4.5   5.8   187  72.9  70.9  93.5   29.35   336
2018-08-16 09:00   0.8   1.6   180  72.3  70.6  94.1   29.34   575
2018-08-16 08:00   2.9   4.3   176  71.1  70.1  96.6   29.34   169
2018-08-16 07:00   3.9   5.2   134  70.2  70.1  99.9   29.33    40
2018-08-16 06:00   4.5   5.2   140  70.9  70.5  98.8   29.31     2
2018-08-16 05:00   4.1   5.4   143  71.8  70.9  97.0   29.32     2
2018-08-16 04:00   6.0   7.8   172  73.4  72.3  96.2   29.32     2
2018-08-16 03:00   7.8   9.1   229  75.6  72.9  91.2   29.32     2
2018-08-16 02:00  11.3  12.4   218  75.9  73.2  91.1   29.32     2
2018-08-16 01:00  14.4  15.2   205  76.6  73.0  88.4   29.33     2
2018-08-16 00:00   5.8   6.4   207  77.2  74.1  90.2   29.32     2
2018-08-15 23:00   4.9   5.2   225  77.2  73.6  88.4   29.32     2
2018-08-15 22:00   3.7   3.9   228  78.1  70.8  78.1   29.32     2
2018-08-15 21:00   1.4   2.1     6  77.5  70.7  79.1   29.31     4
2018-08-15 20:00   3.5   3.9   345  79.2  71.7  77.6   29.29   141